GCFV/FUE METAR and TAF weather

Enter ICAO airport designator
Station Type Date Time Source
GCFV METAR 2019/08/24 20:30 UTC NOAA

GCFV 242030Z 03021KT 7000 FEW010 24/22 Q1014


Station Type Date Time Source
GCFV Decoded METAR 2019/08/24 20:30 UTC NOAA

Station name not available
Aug 24, 2019 - 04:30 PM EDT / 2019.08.24 2030 UTC
Wind: from the NNE (030 degrees) at 24 MPH (21 KT):0
Visibility: 4 mile(s):0
Sky conditions: mostly clear
Temperature: 75 F (24 C)
Dew Point: 71 F (22 C)
Relative Humidity: 88%
Pressure (altimeter): 29.94 in. Hg (1014 hPa)
ob: GCFV 242030Z 03021KT 7000 FEW010 24/22 Q1014
cycle: 20

Station Type Date Time Source
GCFV TAF 2019/08/24 21:27 UTC NOAA

TAF TAF GCFV 242000Z 2421/2521 02014KT 8000 FEW015 TX30/2514Z TN24/2505Z

Example: see airport list